D/T METAR WX W/SPE G/SPE TEMP DEWP FEEL
25/05/22 01:50 EGNM 250050Z 21007KT 9999 SCT042 10/06 Q1007 8.1mph 10°C 6°C 9.6°C
25/05/22 00:50 EGNM 242350Z 23006KT 9999 FEW030 10/06 Q1008 6.9mph 10°C 6°C 9.6°C
25/05/22 00:20 EGNM 242320Z 23006KT 9999 FEW028 10/06 Q1008 6.9mph 10°C 6°C 9.6°C
24/05/22 23:50 EGNM 242250Z 25007KT 9999 SCT030 10/06 Q1008 8.1mph 10°C 6°C 9.6°C
24/05/22 23:20 EGNM 242220Z 24008KT 9999 FEW025 09/06 Q1008 9.2mph 9°C 6°C 8.6°C
24/05/22 22:50 EGNM 242150Z 25006KT CAVOK 09/06 Q1008 6.9mph 9°C 6°C 8.6°C
24/05/22 22:20 EGNM 242120Z 24006KT CAVOK 09/06 Q1008 6.9mph 9°C 6°C 8.6°C
24/05/22 21:50 EGNM 242050Z 25008KT CAVOK 10/06 Q1007 9.2mph 10°C 6°C 9.6°C
24/05/22 21:20 EGNM 242020Z 24010KT 9999 FEW043 10/06 Q1007 11.5mph 10°C 6°C 9.6°C
24/05/22 20:50 EGNM 241950Z 25009KT 9999 FEW043 11/06 Q1007 10.4mph 11°C 6°C 10.6°C
24/05/22 20:20 EGNM 241920Z 26010KT 9999 FEW043 12/06 Q1007 11.5mph 12°C 6°C 11.6°C
24/05/22 19:50 EGNM 241850Z 26013KT 9999 FEW030 12/05 Q1007 15.0mph 12°C 5°C 11.3°C
24/05/22 19:20 EGNM 241820Z 27011KT 9999 FEW030 12/06 Q1007 12.7mph 12°C 6°C 11.6°C
24/05/22 18:50 EGNM 241750Z 26013G23KT 9999 FEW030 12/06 Q1006 15.0mph 26.5mph 12°C 6°C 11.6°C
24/05/22 18:20 EGNM 241720Z 27016KT 9999 FEW030 13/06 Q1006 18.4mph 13°C 6°C 12.6°C
24/05/22 17:50 EGNM 241650Z 27016KT 9999 FEW029 SCT034 14/06 Q1006 18.4mph 14°C 6°C 13.6°C
24/05/22 17:20 EGNM 241620Z 27017KT 9999 FEW025 SCT034 13/06 Q1006 19.6mph 13°C 6°C 12.6°C
24/05/22 16:50 EGNM 241550Z 27017KT 9999 FEW025 SCT034 13/06 Q1005 19.6mph 13°C 6°C 12.6°C
24/05/22 16:20 EGNM 241520Z 27017KT 9999 FEW025 SCT034 13/06 Q1005 19.6mph 13°C 6°C 12.6°C
24/05/22 15:50 EGNM 241450Z 27020KT 9999 FEW025 SCT034 13/06 Q1005 23.0mph 13°C 6°C 12.6°C
24/05/22 15:20 EGNM 241420Z 27019KT 9999 -SHRA FEW025 SCT034 12/05 Q1005 -SHRA 21.9mph 12°C 5°C 11.3°C
24/05/22 14:50 EGNM 241350Z 28017KT 9999 FEW023 SCT030 14/06 Q1004 19.6mph 14°C 6°C 13.6°C
24/05/22 14:20 EGNM 241320Z 28018G30KT 9999 FEW023 SCT030 13/06 Q1004 20.7mph 34.5mph 13°C 6°C 12.6°C
24/05/22 13:50 EGNM 241250Z 27014KT 9999 FEW023 SCT030 13/07 Q1004 16.1mph 13°C 7°C 13.0°C
24/05/22 13:20 EGNM 241220Z 27013KT 9999 FEW023 SCT030 12/07 Q1004 15.0mph 12°C 7°C 12.0°C
24/05/22 12:50 EGNM 241150Z 30016KT 9999 -SHRA FEW020 SCT023 10/07 Q1003 -SHRA 18.4mph 10°C 7°C 10.0°C
24/05/22 12:20 EGNM 241120Z 28013KT 9999 VCSH FEW020 SCT023 11/07 Q1003 VCSH 15.0mph 11°C 7°C 11.0°C
24/05/22 11:50 EGNM 241050Z 28017KT 9999 FEW020 SCT023 14/07 Q1003 19.6mph 14°C 7°C 14.0°C
24/05/22 11:20 EGNM 241020Z 28015KT 9999 SCT015 SCT022 11/06 Q1003 17.3mph 11°C 6°C 10.6°C
24/05/22 10:50 EGNM 240950Z 27011KT 9999 SCT015 SCT033 12/07 Q1003 12.7mph 12°C 7°C 12.0°C
24/05/22 10:20 EGNM 240920Z 27014KT 9999 VCSH FEW015 SCT030 12/06 Q1002 VCSH 16.1mph 12°C 6°C 11.6°C
24/05/22 09:50 EGNM 240850Z 28014KT 9999 VCSH FEW015 SCT030 12/05 Q1002 VCSH 16.1mph 12°C 5°C 11.3°C
24/05/22 09:20 EGNM 240820Z 30016KT 9999 FEW015 SCT030 12/05 Q1002 18.4mph 12°C 5°C 11.3°C
24/05/22 08:50 EGNM 240750Z 28012KT 9999 SCT015 12/06 Q1002 13.8mph 12°C 6°C 11.6°C
24/05/22 08:20 EGNM 240720Z 30012KT 9999 SCT015 11/07 Q1001 13.8mph 11°C 7°C 11.0°C
24/05/22 07:50 EGNM 240650Z 29013KT 9999 FEW015 10/07 Q1001 15.0mph 10°C 7°C 10.0°C
24/05/22 07:20 EGNM 240620Z 28013KT 9999 FEW015 09/07 Q1001 15.0mph 9°C 7°C 9.0°C
24/05/22 06:50 EGNM 240550Z 26011KT CAVOK 09/07 Q1000 12.7mph 9°C 7°C 9.0°C
24/05/22 06:20 EGNM 240520Z 27012KT CAVOK 08/06 Q1000 13.8mph 8°C 6°C 7.6°C
24/05/22 05:50 EGNM 240450Z 28014KT CAVOK 08/07 Q1000 16.1mph 8°C 7°C 8.0°C
24/05/22 05:20 EGNM 240420Z 27013KT CAVOK 08/07 Q1000 15.0mph 8°C 7°C 8.0°C
24/05/22 04:50 EGNM 240350Z 27013KT 9999 FEW010 08/07 Q0999 15.0mph 8°C 7°C 8.0°C
24/05/22 04:20 EGNM 240320Z 27012KT 9999 FEW010 09/07 Q0999 13.8mph 9°C 7°C 9.0°C
24/05/22 03:50 EGNM 240250Z 28009KT CAVOK 09/07 Q0999 10.4mph 9°C 7°C 9.0°C
24/05/22 03:20 EGNM 240220Z 28010KT CAVOK 09/07 Q0999 11.5mph 9°C 7°C 9.0°C
24/05/22 02:50 EGNM 240150Z 28012KT CAVOK 09/07 Q0999 13.8mph 9°C 7°C 9.0°C
24/05/22 02:20 EGNM 240120Z 28013KT CAVOK 09/07 Q0999 15.0mph 9°C 7°C 9.0°C
24/05/22 01:50 EGNM 240050Z 28011KT CAVOK 09/07 Q0999 12.7mph 9°C 7°C 9.0°C
24/05/22 01:20 EGNM 240020Z 28012KT CAVOK 09/07 Q0999 13.8mph 9°C 7°C 9.0°C
24/05/22 00:50 EGNM 232350Z 28014KT 9999 SCT045 10/07 Q0999 16.1mph 10°C 7°C 10.0°C
24/05/22 00:20 EGNM 232320Z 28011KT 9999 SCT037 10/07 Q0999 12.7mph 10°C 7°C 10.0°C
23/05/22 23:50 EGNM 232250Z 27013KT 9999 SCT037 10/07 Q0999 15.0mph 10°C 7°C 10.0°C
23/05/22 23:20 EGNM 232220Z 28013KT 9999 SCT034 10/07 Q0999 15.0mph 10°C 7°C 10.0°C
23/05/22 22:50 EGNM 232150Z 28013KT 9999 SCT034 10/07 Q0999 15.0mph 10°C 7°C 10.0°C
23/05/22 22:20 EGNM 232120Z 28014KT CAVOK 10/08 Q0999 16.1mph 10°C 8°C 10.4°C
23/05/22 21:50 EGNM 232050Z 27013KT 9999 FEW023 10/08 Q0999 15.0mph 10°C 8°C 10.4°C
23/05/22 21:20 EGNM 232020Z 28012KT 9999 FEW023 10/07 Q0999 13.8mph 10°C 7°C 10.0°C
23/05/22 20:50 EGNM 231950Z 28013KT 9999 FEW020 11/07 Q0999 15.0mph 11°C 7°C 11.0°C
23/05/22 20:20 EGNM 231920Z 28013KT 9999 FEW028 11/07 Q0999 15.0mph 11°C 7°C 11.0°C
23/05/22 19:50 EGNM 231850Z 28014KT 9999 FEW021 12/07 Q0999 16.1mph 12°C 7°C 12.0°C
23/05/22 19:20 EGNM 231820Z 28016KT 9999 FEW021 12/07 Q0999 18.4mph 12°C 7°C 12.0°C
23/05/22 18:50 EGNM 231750Z 28013KT 9999 FEW020 13/07 Q0999 15.0mph 13°C 7°C 13.0°C
23/05/22 18:20 EGNM 231720Z 27012KT 9999 FEW020 13/08 Q0999 13.8mph 13°C 8°C 13.4°C
23/05/22 17:50 EGNM 231650Z 27013KT 9999 FEW020 13/07 Q0999 15.0mph 13°C 7°C 13.0°C
23/05/22 17:20 EGNM 231620Z 27013KT 9999 FEW027 14/08 Q0999 15.0mph 14°C 8°C 14.4°C
23/05/22 16:50 EGNM 231550Z 27010KT 9999 FEW025 13/08 Q0999 11.5mph 13°C 8°C 13.4°C
23/05/22 16:20 EGNM 231520Z 27011KT 9999 -SHRA FEW025 SCT036 13/09 Q0999 -SHRA 12.7mph 13°C 9°C 13.8°C
23/05/22 15:50 EGNM 231450Z 27012KT 9999 FEW025 SCT036 13/09 Q1000 13.8mph 13°C 9°C 13.8°C
23/05/22 15:20 EGNM 231420Z 26012KT 9999 FEW025 SCT036 14/08 Q1000 13.8mph 14°C 8°C 14.4°C
23/05/22 14:50 EGNM 231350Z 26008KT 210V290 9999 FEW020 SCT034 14/08 Q1000 9.2mph 14°C 8°C 14.4°C
23/05/22 14:20 EGNM 231320Z 27012KT 9999 FEW020 SCT034 13/08 Q1000 13.8mph 13°C 8°C 13.4°C
23/05/22 13:50 EGNM 231250Z 26013KT 9999 SCT032 14/08 Q1000 15.0mph 14°C 8°C 14.4°C
23/05/22 12:50 EGNM 231150Z 25011KT 9999 SCT032 14/07 Q1000 12.7mph 14°C 7°C 14.0°C
23/05/22 12:20 EGNM 231120Z 25011KT 9999 SCT030 14/07 Q1000 12.7mph 14°C 7°C 14.0°C
23/05/22 11:50 EGNM 231050Z 25009KT 9999 SCT030 14/07 Q1001 10.4mph 14°C 7°C 14.0°C
23/05/22 11:20 EGNM 231020Z 27008KT 230V310 9999 SCT025 14/08 Q1001 9.2mph 14°C 8°C 14.4°C
23/05/22 10:50 EGNM 230950Z 25009KT 220V280 9999 FEW030 14/08 Q1001 10.4mph 14°C 8°C 14.4°C
23/05/22 10:20 EGNM 230920Z 25008KT 9999 FEW011 SCT018 14/08 Q1001 9.2mph 14°C 8°C 14.4°C
23/05/22 09:50 EGNM 230850Z 26008KT 230V300 9999 FEW011 SCT018 13/09 Q1001 9.2mph 13°C 9°C 13.8°C
23/05/22 09:20 EGNM 230820Z 25009KT 210V290 9999 FEW011 SCT018 13/09 Q1002 10.4mph 13°C 9°C 13.8°C
23/05/22 08:50 EGNM 230750Z 24008KT 9999 SCT011 12/09 Q1002 9.2mph 12°C 9°C 12.8°C
23/05/22 07:50 EGNM 230650Z 24005KT 9999 SCT013 11/09 Q1002 5.8mph 11°C 9°C 11.8°C
23/05/22 07:20 EGNM 230620Z 23006KT 9999 FEW015 11/09 Q1002 6.9mph 11°C 9°C 11.8°C
23/05/22 06:50 EGNM 230550Z 22007KT 200V260 9999 FEW015 11/09 Q1002 8.1mph 11°C 9°C 11.8°C
23/05/22 06:20 EGNM 230520Z 21006KT 9999 FEW015 11/09 Q1002 6.9mph 11°C 9°C 11.8°C
23/05/22 05:50 EGNM 230450Z 20004KT 9999 SCT020 10/09 Q1003 4.6mph 10°C 9°C 10.8°C
23/05/22 05:20 EGNM 230420Z 22004KT 9999 SCT020 10/09 Q1003 4.6mph 10°C 9°C 10.8°C
23/05/22 04:50 EGNM 230350Z 24005KT 9999 FEW020 10/08 Q1003 5.8mph 10°C 8°C 10.4°C
23/05/22 03:50 EGNM 230250Z 27005KT CAVOK 10/08 Q1004 5.8mph 10°C 8°C 10.4°C
23/05/22 03:20 EGNM 230220Z 26006KT CAVOK 10/09 Q1004 6.9mph 10°C 9°C 10.8°C
23/05/22 02:50 EGNM 230150Z 26005KT 9999 FEW040 11/09 Q1004 5.8mph 11°C 9°C 11.8°C
23/05/22 02:20 EGNM 230120Z 26008KT 9999 SCT045 11/09 Q1004 9.2mph 11°C 9°C 11.8°C
23/05/22 01:50 EGNM 230050Z 25005KT 9999 SCT045 11/09 Q1005 5.8mph 11°C 9°C 11.8°C
23/05/22 01:20 EGNM 230020Z 25007KT 9999 SCT045 12/10 Q1005 8.1mph 12°C 10°C 13.3°C
23/05/22 00:50 EGNM 222350Z 24007KT 210V270 9999 FEW035 13/11 Q1005 8.1mph 13°C 11°C 14.8°C
22/05/22 23:50 EGNM 222250Z 23004KT 9999 FEW020 SCT028 13/12 Q1006 4.6mph 13°C 12°C 15.3°C